Thunder radar more information blitzortung!


avis per Pluja more information rain snow radar


Visita la nostra xarxa de llocs de meteo:

Template documentation
and downloads

And another site



Rain From: 16-11-2018 00:00 Until: 09:59 warning for: Rain Level: Yellow info button

Pagina Historial Weather Underground text

Diari Resum Desembre 31, 2017 Unitats:  Imperial    Mètric   Tant
« Previous Dia
SegĂźent Dia »
Diari Setmana Mensual Anual Personalitzada
  Maxima: Minima: Media:
Temperatura: TemperatureC °F 5.2 °F 12.3 °F
Punt de rosada: DewpointC °F -1.4 °F 4.2 °F
Humitat: Humidity % 51 % 58 %
Wind Speed: WindSpeedKMH mph 0.0 mph 7.8 mph
RĂ fegues de vent: WindSpeedGustKMH mph - -
Vent:- - WSW
Pression baro: PressurehPa in 1014.8 in -
Precipitacions: 0.0 in    
Historical Graphs
 
 
Dades de taula per Desembre 31, 2017
Temps Temperatura Punt de rosada Pression baro Vent Wind Speed RĂ fegues de vent Humitat Rainfall Rate (Hourly)
TemperatureC °F DewpointC °F PressurehPa in Calm     Humidity % HourlyPrecipMM in
00:04 10.0 °F 4.3 °F 1023.9 in Calm     68 % 0.0 in
00:05 10.0 °F 4.2 °F 1023.9 in NW 2.6 mph   67 % 0.0 in
00:07 9.9 °F 4.1 °F 1023.9 in NW 3.7 mph 3.7 mph 67 % 0.0 in
00:15 5.9 °F 2.2 °F 1021.9 in NNW 3.2 mph 3.2 mph 77 % 0.0 in
00:25 6.0 °F 2.3 °F 1021.9 in North 1.6 mph 3.2 mph 77 % 0.0 in
00:35 5.4 °F 1.5 °F 1020.9 in WNW 1.6 mph 3.2 mph 76 % 0.0 in
00:45 5.6 °F 2.1 °F 1020.9 in Calm     78 % 0.0 in
00:55 5.6 °F 2.1 °F 1020.9 in Calm   4.8 mph 78 % 0.0 in
01:05 5.6 °F 2.1 °F 1020.9 in NNW 1.6 mph 3.2 mph 78 % 0.0 in
01:15 5.5 °F 1.9 °F 1020.9 in Calm   3.2 mph 78 % 0.0 in
01:25 5.2 °F 1.7 °F 1020.9 in NW 1.6 mph 3.2 mph 78 % 0.0 in
01:35 5.3 °F 1.8 °F 1020.9 in Calm   1.6 mph 78 % 0.0 in
01:45 5.3 °F 1.8 °F 1020.9 in Calm   3.2 mph 78 % 0.0 in
01:55 5.2 °F 1.7 °F 1020.9 in NW 1.6 mph 1.6 mph 78 % 0.0 in
02:05 5.4 °F 1.9 °F 1020.9 in Calm   3.2 mph 78 % 0.0 in
02:15 5.6 °F 2.2 °F 1020.9 in NW 1.6 mph 4.8 mph 79 % 0.0 in
02:25 5.7 °F 2.2 °F 1020.9 in Calm   4.8 mph 78 % 0.0 in
02:35 5.7 °F 2.2 °F 1019.9 in Calm   1.6 mph 78 % 0.0 in
02:45 5.9 °F 2.3 °F 1019.9 in NNW 1.6 mph 3.2 mph 78 % 0.0 in
02:55 6.0 °F 2.4 °F 1019.9 in WNW 1.6 mph 1.6 mph 78 % 0.0 in
03:05 5.8 °F 2.3 °F 1019.9 in Calm   3.2 mph 78 % 0.0 in
03:15 5.9 °F 2.3 °F 1019.9 in Calm   1.6 mph 78 % 0.0 in
03:25 6.2 °F 2.7 °F 1019.9 in Calm   4.8 mph 78 % 0.0 in
03:35 6.6 °F 3.1 °F 1019.9 in Calm   3.2 mph 78 % 0.0 in
03:45 6.8 °F 3.2 °F 1019.9 in Calm   1.6 mph 78 % 0.0 in
03:55 7.1 °F 3.5 °F 1019.9 in Calm   1.6 mph 78 % 0.0 in
04:05 8.1 °F 4.5 °F 1019.9 in Calm   3.2 mph 78 % 0.0 in
04:15 8.5 °F 4.5 °F 1019.9 in SSW 1.6 mph 3.2 mph 76 % 0.0 in
04:25 8.4 °F 4.4 °F 1019.9 in Calm   1.6 mph 76 % 0.0 in
04:35 8.6 °F 4.4 °F 1019.9 in Calm   1.6 mph 75 % 0.0 in
04:45 9.4 °F 5.2 °F 1019.9 in Calm     75 % 0.0 in
04:55 10.2 °F 5.8 °F 1020.9 in Calm     74 % 0.0 in
05:05 10.7 °F 6.1 °F 1019.9 in Calm   1.6 mph 73 % 0.0 in
11:08 10.1 °F 4.9 °F 1019.9 in ESE 3.7 mph 3.7 mph 70 % 0.0 in
11:11 10.2 °F 5.2 °F 1019.9 in SSE 3.7 mph 3.7 mph 71 % 0.0 in
11:15 10.2 °F 5.2 °F 1019.9 in ESE 1.9 mph   71 % 0.0 in
11:19 10.4 °F 5.6 °F 1019.9 in SSE 3.7 mph 3.7 mph 72 % 0.0 in
11:21 10.4 °F 5.4 °F 1019.9 in SSE 3.7 mph 3.9 mph 71 % 0.0 in
11:26 10.4 °F 5.4 °F 1019.9 in SE 2.6 mph 2.6 mph 71 % 0.0 in
11:27 10.4 °F 5.4 °F 1019.9 in SSE 3.7 mph 3.7 mph 71 % 0.0 in
11:32 10.5 °F 5.4 °F 1019.9 in East 3.7 mph 3.7 mph 71 % 0.0 in
11:35 10.5 °F 5.4 °F 1019.9 in ESE 3.9 mph 3.9 mph 71 % 0.0 in
11:37 10.4 °F 5.4 °F 1019.9 in ESE 3.7 mph 3.7 mph 71 % 0.0 in
11:40 10.4 °F 5.4 °F 1019.9 in ESE 3.7 mph 3.7 mph 71 % 0.0 in
11:43 10.5 °F 5.4 °F 1019.9 in East 3.7 mph 3.7 mph 71 % 0.0 in
11:48 10.4 °F 5.4 °F 1019.9 in NE 3.7 mph 3.7 mph 71 % 0.0 in
11:49 10.4 °F 5.4 °F 1019.9 in NE 1.9 mph 1.9 mph 71 % 0.0 in
11:54 10.5 °F 5.4 °F 1019.9 in East 3.7 mph 3.7 mph 71 % 0.0 in
11:55 10.5 °F 5.5 °F 1019.9 in East 1.6 mph 3.2 mph 71 % 0.0 in
12:00 10.6 °F 5.6 °F 1019.9 in ENE 1.9 mph 1.9 mph 71 % 0.0 in
12:04 10.7 °F 5.7 °F 1019.9 in NNE 3.7 mph 3.7 mph 71 % 0.0 in
12:07 10.9 °F 5.8 °F 1019.9 in NE 3.7 mph   71 % 0.0 in
12:12 11.2 °F 6.1 °F 1019.9 in NE 3.7 mph 3.7 mph 71 % 0.0 in
12:13 11.2 °F 6.1 °F 1019.9 in NE 3.7 mph 3.7 mph 71 % 0.0 in
12:18 11.5 °F 6.4 °F 1019.9 in East 3.9 mph 3.9 mph 71 % 0.0 in
12:20 11.4 °F 6.4 °F 1019.9 in ENE 1.6 mph 3.2 mph 71 % 0.0 in
12:25 11.5 °F 6.2 °F 1018.8 in ESE 4.7 mph 4.7 mph 70 % 0.0 in
12:30 11.8 °F 6.5 °F 1018.8 in ENE 3.7 mph 3.7 mph 70 % 0.0 in
12:34 11.8 °F 6.3 °F 1018.8 in SE 4.7 mph 4.7 mph 69 % 0.0 in
12:35 11.8 °F 6.3 °F 1018.8 in ESE 3.9 mph 3.9 mph 69 % 0.0 in
12:40 12.0 °F 6.5 °F 1018.8 in SSE 3.7 mph 3.7 mph 69 % 0.0 in
12:43 12.4 °F 6.9 °F 1018.8 in South 3.5 mph 3.5 mph 69 % 0.0 in
12:48 12.8 °F 7.3 °F 1018.8 in WNW 1.9 mph 2.3 mph 69 % 0.0 in
12:49 12.8 °F 7.3 °F 1018.8 in WNW 1.9 mph 2.3 mph 69 % 0.0 in
12:54 14.1 °F 8.1 °F 1018.8 in SW 9.3 mph 9.3 mph 67 % 0.0 in
12:59 14.8 °F 8.5 °F 1018.8 in WSW 9.5 mph 9.5 mph 66 % 0.0 in
13:01 15.0 °F 8.4 °F 1018.8 in NW 9.3 mph 9.3 mph 65 % 0.0 in
13:04 15.2 °F 8.4 °F 1018.8 in NW 11.1 mph 11.1 mph 64 % 0.0 in
13:06 15.3 °F 8.3 °F 1018.8 in West 9.3 mph 9.3 mph 63 % 0.0 in
13:11 15.2 °F 8.2 °F 1017.8 in West 6.9 mph 6.9 mph 63 % 0.0 in
13:12 15.2 °F 7.9 °F 1017.8 in WSW 13.0 mph 13.0 mph 62 % 0.0 in
13:17 15.2 °F 7.7 °F 1017.8 in WNW 7.4 mph 7.4 mph 61 % 0.0 in
13:19 15.3 °F 7.8 °F 1017.8 in West 5.6 mph 6.4 mph 61 % 0.0 in
13:22 15.3 °F 7.8 °F 1017.8 in WSW 5.6 mph 5.6 mph 61 % 0.0 in
13:25 15.3 °F 7.8 °F 1017.8 in SW 5.6 mph 5.6 mph 61 % 0.0 in
13:27 15.3 °F 7.8 °F 1017.8 in West 13.0 mph 13.0 mph 61 % 0.0 in
13:32 15.4 °F 7.7 °F 1017.8 in WSW 9.3 mph 9.3 mph 60 % 0.0 in
13:33 15.4 °F 7.4 °F 1017.8 in West 4.7 mph 4.7 mph 59 % 0.0 in
13:38 15.5 °F 7.5 °F 1017.8 in West 13.0 mph 13.0 mph 59 % 0.0 in
13:39 15.5 °F 7.5 °F 1017.8 in West 13.0 mph 13.0 mph 59 % 0.0 in
13:44 15.6 °F 7.6 °F 1017.8 in WSW 11.1 mph 11.1 mph 59 % 0.0 in
13:49 15.6 °F 7.3 °F 1017.8 in WSW 9.7 mph 9.7 mph 58 % 0.0 in
13:50 15.5 °F 7.0 °F 1017.8 in WNW 11.1 mph 11.1 mph 57 % 0.0 in
13:54 15.6 °F 7.1 °F 1016.8 in WSW 9.3 mph 9.3 mph 57 % 0.0 in
13:56 15.7 °F 7.2 °F 1016.8 in West 4.2 mph 4.7 mph 57 % 0.0 in
14:00 15.8 °F 7.3 °F 1016.8 in West 19.0 mph 19.0 mph 57 % 0.0 in
14:05 16.0 °F 7.5 °F 1016.8 in WNW 11.1 mph 11.1 mph 57 % 0.0 in
14:06 16.0 °F 7.2 °F 1016.8 in West 11.1 mph 11.1 mph 56 % 0.0 in
14:11 15.9 °F 7.1 °F 1015.8 in West 9.3 mph 9.3 mph 56 % 0.0 in
14:13 15.9 °F 7.1 °F 1015.8 in NNW 11.1 mph 11.1 mph 56 % 0.0 in
14:16 16.0 °F 6.9 °F 1015.8 in NW 9.3 mph 9.3 mph 55 % 0.0 in
14:21 16.2 °F 7.4 °F 1015.8 in West 7.4 mph 7.4 mph 56 % 0.0 in
14:26 16.3 °F 7.2 °F 1015.8 in WSW 7.9 mph 7.9 mph 55 % 0.0 in
14:27 16.3 °F 7.2 °F 1015.8 in WSW 7.9 mph 7.9 mph 55 % 0.0 in
14:30 16.3 °F 6.9 °F 1015.8 in WSW 4.8 mph 16.1 mph 54 % 0.0 in
14:35 16.4 °F 7.1 °F 1015.8 in SW 11.1 mph 11.1 mph 54 % 0.0 in
14:36 16.4 °F 7.1 °F 1015.8 in SW 7.4 mph 7.4 mph 54 % 0.0 in
14:37 16.4 °F 7.1 °F 1015.8 in West 7.4 mph 7.4 mph 54 % 0.0 in
14:42 16.1 °F 6.8 °F 1015.8 in WSW 21.2 mph 21.2 mph 54 % 0.0 in
14:44 16.1 °F 6.5 °F 1015.8 in WSW 11.4 mph 11.4 mph 53 % 0.0 in
14:49 16.1 °F 6.5 °F 1015.8 in WSW 16.7 mph 16.7 mph 53 % 0.0 in
14:50 16.1 °F 6.5 °F 1015.8 in SW 18.5 mph 18.5 mph 53 % 0.0 in
14:54 16.1 °F 6.5 °F 1016.8 in West 7.4 mph 7.4 mph 53 % 0.0 in
14:58 16.2 °F 6.6 °F 1016.8 in WNW 13.0 mph 13.0 mph 53 % 0.0 in
15:03 16.3 °F 6.4 °F 1016.8 in West 18.5 mph 18.5 mph 52 % 0.0 in
15:08 16.1 °F 6.2 °F 1016.8 in SW 24.1 mph 24.1 mph 52 % 0.0 in
15:09 16.0 °F 5.8 °F 1016.8 in WNW 16.7 mph 16.7 mph 51 % 0.0 in
15:13 15.9 °F 6.1 °F 1016.8 in SW 13.0 mph 13.0 mph 52 % 0.0 in
15:18 15.8 °F 5.9 °F 1016.8 in WSW 9.3 mph 9.3 mph 52 % 0.0 in
15:23 15.6 °F 5.8 °F 1016.8 in WNW 11.1 mph 11.1 mph 52 % 0.0 in
15:24 15.6 °F 5.8 °F 1016.8 in West 4.2 mph 4.2 mph 52 % 0.0 in
15:29 15.6 °F 5.8 °F 1016.8 in WSW 7.4 mph 7.4 mph 52 % 0.0 in
15:31 15.6 °F 5.8 °F 1016.8 in WSW 7.4 mph 7.4 mph 52 % 0.0 in
15:36 15.4 °F 5.6 °F 1016.8 in WNW 9.3 mph 9.3 mph 52 % 0.0 in
15:41 15.4 °F 5.6 °F 1016.8 in West 15.8 mph 15.8 mph 52 % 0.0 in
15:42 15.4 °F 5.6 °F 1016.8 in West 14.8 mph 14.8 mph 52 % 0.0 in
15:47 15.4 °F 5.6 °F 1016.8 in NW 13.0 mph 13.0 mph 52 % 0.0 in
15:49 15.4 °F 5.6 °F 1016.8 in West 16.7 mph 16.7 mph 52 % 0.0 in
15:52 15.4 °F 5.6 °F 1015.8 in WSW 20.4 mph 20.4 mph 52 % 0.0 in
15:56 15.3 °F 5.5 °F 1015.8 in West 11.1 mph 11.1 mph 52 % 0.0 in
15:58 15.3 °F 5.5 °F 1015.8 in WSW 7.4 mph 7.4 mph 52 % 0.0 in
16:03 15.2 °F 5.4 °F 1015.8 in WSW 9.3 mph 9.3 mph 52 % 0.0 in
16:04 15.2 °F 5.4 °F 1015.8 in WSW 7.4 mph 7.4 mph 52 % 0.0 in
16:09 15.1 °F 5.3 °F 1015.8 in WNW 5.6 mph 5.6 mph 52 % 0.0 in
16:10 15.1 °F 5.3 °F 1015.8 in WNW 9.0 mph 9.0 mph 52 % 0.0 in
16:15 15.0 °F 5.2 °F 1015.8 in WSW 5.6 mph 5.6 mph 52 % 0.0 in
16:20 14.9 °F 5.1 °F 1015.8 in WNW 3.7 mph 3.9 mph 52 % 0.0 in
16:23 14.8 °F 5.1 °F 1016.8 in WNW 6.9 mph 6.9 mph 52 % 0.0 in
16:26 14.8 °F 5.1 °F 1016.8 in West 9.3 mph 9.3 mph 52 % 0.0 in
16:30 14.7 °F 4.9 °F 1016.8 in SW 16.7 mph 16.7 mph 52 % 0.0 in
16:31 14.6 °F 4.8 °F 1016.8 in SW 7.4 mph 7.4 mph 52 % 0.0 in
16:36 14.5 °F 4.8 °F 1016.8 in SW 7.9 mph 8.7 mph 52 % 0.0 in
16:37 14.5 °F 4.8 °F 1016.8 in SW 7.9 mph 8.7 mph 52 % 0.0 in
16:41 14.4 °F 4.7 °F 1015.8 in West 5.6 mph 5.8 mph 52 % 0.0 in
16:42 14.4 °F 4.7 °F 1015.8 in West 7.4 mph 7.4 mph 52 % 0.0 in
16:47 14.3 °F 4.6 °F 1015.8 in West 7.4 mph 7.4 mph 52 % 0.0 in
16:52 14.2 °F 4.5 °F 1015.8 in West 7.4 mph 7.4 mph 52 % 0.0 in
16:53 14.1 °F 4.4 °F 1015.8 in WSW 7.4 mph 7.4 mph 52 % 0.0 in
16:54 14.1 °F 4.4 °F 1015.8 in West 7.4 mph 7.4 mph 52 % 0.0 in
16:59 14.0 °F 4.3 °F 1015.8 in WSW 5.6 mph 5.6 mph 52 % 0.0 in
17:01 13.9 °F 4.2 °F 1015.8 in SW 7.4 mph 7.4 mph 52 % 0.0 in
17:03 13.8 °F 4.4 °F 1015.8 in WSW 5.6 mph 5.6 mph 53 % 0.0 in
17:08 13.6 °F 4.2 °F 1015.8 in WSW 9.3 mph 9.3 mph 53 % 0.0 in
17:09 13.6 °F 4.2 °F 1015.8 in SW 7.9 mph 7.9 mph 53 % 0.0 in
17:14 13.4 °F 4.0 °F 1015.8 in WSW 9.3 mph 9.3 mph 53 % 0.0 in
17:15 13.4 °F 4.0 °F 1015.8 in WSW 9.3 mph 9.3 mph 53 % 0.0 in
17:20 13.4 °F 4.0 °F 1015.8 in SW 11.1 mph 11.1 mph 53 % 0.0 in
17:24 13.3 °F 3.9 °F 1015.8 in West 11.1 mph 11.1 mph 53 % 0.0 in
17:27 13.1 °F 3.7 °F 1015.8 in SW 5.6 mph 5.6 mph 53 % 0.0 in
17:29 13.0 °F 3.6 °F 1015.8 in SSW 11.4 mph 11.4 mph 53 % 0.0 in
17:34 13.0 °F 3.6 °F 1015.8 in West 13.0 mph 13.0 mph 53 % 0.0 in
17:39 12.8 °F 3.4 °F 1015.8 in WNW 7.4 mph 7.4 mph 53 % 0.0 in
17:41 12.8 °F 3.4 °F 1015.8 in WNW 7.4 mph 7.4 mph 53 % 0.0 in
17:42 12.8 °F 3.4 °F 1015.8 in WSW 7.4 mph 7.4 mph 53 % 0.0 in
17:46 12.7 °F 3.3 °F 1015.8 in SW 9.3 mph 9.3 mph 53 % 0.0 in
17:51 12.5 °F 3.2 °F 1015.8 in West 13.0 mph 13.0 mph 53 % 0.0 in
17:52 12.5 °F 3.2 °F 1015.8 in West 6.1 mph 6.1 mph 53 % 0.0 in
17:57 12.4 °F 3.3 °F 1015.8 in WSW 7.9 mph 7.9 mph 54 % 0.0 in
18:00 12.4 °F 3.3 °F 1015.8 in SW 9.3 mph 9.5 mph 54 % 0.0 in
18:05 12.3 °F 3.2 °F 1015.8 in WSW 5.6 mph 5.6 mph 54 % 0.0 in
18:09 12.3 °F 3.2 °F 1015.8 in WSW 7.4 mph 7.4 mph 54 % 0.0 in
18:11 12.2 °F 3.2 °F 1015.8 in WSW 5.6 mph 5.6 mph 54 % 0.0 in
18:16 12.2 °F 3.2 °F 1015.8 in SW 5.6 mph 5.6 mph 54 % 0.0 in
18:20 12.2 °F 3.2 °F 1015.8 in ESE 1.9 mph 1.9 mph 54 % 0.0 in
18:21 12.2 °F 3.2 °F 1015.8 in SW 3.7 mph 3.7 mph 54 % 0.0 in
18:25 12.1 °F 3.1 °F 1014.8 in SW 5.6 mph 5.6 mph 54 % 0.0 in
18:28 12.1 °F 3.1 °F 1014.8 in WSW 11.1 mph 11.1 mph 54 % 0.0 in
18:29 12.1 °F 3.1 °F 1014.8 in WSW 11.1 mph 11.1 mph 54 % 0.0 in
18:34 12.2 °F 3.2 °F 1014.8 in WSW 9.3 mph 9.3 mph 54 % 0.0 in
18:35 12.2 °F 3.2 °F 1014.8 in West 10.0 mph 10.0 mph 54 % 0.0 in
18:39 12.3 °F 3.2 °F 1015.8 in West 9.3 mph 9.3 mph 54 % 0.0 in
18:42 12.5 °F 3.4 °F 1015.8 in West 13.0 mph 13.0 mph 54 % 0.0 in
18:45 11.7 °F 2.9 °F 1017.8 in WSW 4.8 mph 6.4 mph 55 % 0.0 in
18:47 12.5 °F 3.4 °F 1015.8 in WSW 6.9 mph 6.9 mph 54 % 0.0 in
18:49 12.5 °F 3.4 °F 1015.8 in WSW 4.7 mph 4.7 mph 54 % 0.0 in
18:54 12.4 °F 3.3 °F 1015.8 in WNW 6.4 mph 6.4 mph 54 % 0.0 in
18:55 11.5 °F 2.8 °F 1017.8 in WSW 3.2 mph 4.8 mph 55 % 0.0 in
18:59 12.5 °F 3.4 °F 1015.8 in West 9.3 mph 9.3 mph 54 % 0.0 in
19:02 12.5 °F 3.4 °F 1015.8 in WNW 9.3 mph 9.3 mph 54 % 0.0 in
19:05 12.5 °F 3.4 °F 1015.8 in West 11.9 mph 11.9 mph 54 % 0.0 in
19:10 12.6 °F 3.6 °F 1015.8 in WSW 9.5 mph 9.5 mph 54 % 0.0 in
19:11 12.6 °F 3.6 °F 1015.8 in WSW 10.0 mph 10.0 mph 54 % 0.0 in
19:15 10.9 °F 1.9 °F 1017.8 in West 4.8 mph 6.4 mph 54 % 0.0 in
19:16 12.6 °F 3.6 °F 1015.8 in WNW 14.8 mph 14.8 mph 54 % 0.0 in
19:21 12.6 °F 3.6 °F 1015.8 in West 9.5 mph 10.0 mph 54 % 0.0 in
19:22 12.6 °F 3.6 °F 1015.8 in WSW 14.8 mph 14.8 mph 54 % 0.0 in
19:23 12.6 °F 3.6 °F 1015.8 in West 11.1 mph 11.1 mph 54 % 0.0 in
19:25 10.5 °F 1.3 °F 1016.8 in West 12.9 mph 19.3 mph 53 % 0.0 in
19:28 12.7 °F 3.6 °F 1015.8 in WNW 11.1 mph 11.4 mph 54 % 0.0 in
19:29 12.7 °F 3.6 °F 1015.8 in WSW 18.5 mph 18.5 mph 54 % 0.0 in
19:32 12.8 °F 3.4 °F 1015.8 in WSW 16.7 mph 16.7 mph 53 % 0.0 in
19:35 10.0 °F 0.8 °F 1016.8 in WSW 8.0 mph 12.9 mph 53 % 0.0 in
19:37 12.7 °F 3.3 °F 1015.8 in West 9.3 mph 9.3 mph 53 % 0.0 in
19:38 12.7 °F 3.3 °F 1015.8 in West 9.3 mph 9.3 mph 53 % 0.0 in
19:43 12.7 °F 3.3 °F 1015.8 in WSW 8.7 mph 8.7 mph 53 % 0.0 in
19:44 12.7 °F 3.3 °F 1015.8 in WSW 13.0 mph 13.0 mph 53 % 0.0 in
19:45 9.7 °F 0.3 °F 1016.8 in WSW 8.0 mph 16.1 mph 52 % 0.0 in
19:46 12.7 °F 3.3 °F 1015.8 in West 14.8 mph 14.8 mph 53 % 0.0 in
19:51 12.7 °F 3.3 °F 1015.8 in WSW 10.0 mph 10.0 mph 53 % 0.0 in
19:55 9.4 °F 0.0 °F 1017.8 in WSW 4.8 mph 14.5 mph 52 % 0.0 in
19:56 12.7 °F 3.3 °F 1015.8 in WSW 9.3 mph 9.3 mph 53 % 0.0 in
19:57 12.7 °F 3.3 °F 1015.8 in WNW 11.1 mph 11.1 mph 53 % 0.0 in
20:02 12.8 °F 3.4 °F 1015.8 in WNW 13.0 mph 13.0 mph 53 % 0.0 in
20:04 12.8 °F 3.4 °F 1015.8 in West 13.0 mph 13.0 mph 53 % 0.0 in
20:05 9.2 °F -0.2 °F 1018.8 in West 4.8 mph 12.9 mph 52 % 0.0 in
20:08 12.8 °F 3.4 °F 1015.8 in West 14.8 mph 14.8 mph 53 % 0.0 in
20:10 12.8 °F 3.4 °F 1015.8 in NNW 9.3 mph 9.3 mph 53 % 0.0 in
20:15 12.8 °F 3.4 °F 1015.8 in West 9.3 mph 9.3 mph 53 % 0.0 in
20:16 12.8 °F 3.4 °F 1015.8 in West 9.3 mph 9.3 mph 53 % 0.0 in
20:21 12.8 °F 3.4 °F 1015.8 in West 13.0 mph 13.0 mph 53 % 0.0 in
20:22 12.8 °F 3.4 °F 1015.8 in WNW 13.0 mph 13.0 mph 53 % 0.0 in
20:25 8.9 °F -0.4 °F 1018.8 in WNW 4.8 mph 6.4 mph 52 % 0.0 in
20:27 12.8 °F 3.4 °F 1015.8 in SW 13.0 mph 13.0 mph 53 % 0.0 in
20:28 12.9 °F 3.6 °F 1015.8 in SW 13.0 mph 13.0 mph 53 % 0.0 in
20:29 12.9 °F 3.6 °F 1015.8 in WNW 13.0 mph 13.0 mph 53 % 0.0 in
20:34 12.8 °F 3.4 °F 1015.8 in West 9.3 mph 9.3 mph 53 % 0.0 in
20:35 12.8 °F 3.4 °F 1015.8 in SW 7.4 mph 7.4 mph 53 % 0.0 in
20:40 12.9 °F 3.6 °F 1015.8 in WSW 5.6 mph 5.6 mph 53 % 0.0 in
20:42 12.9 °F 3.6 °F 1015.8 in West 9.3 mph 9.3 mph 53 % 0.0 in
20:43 12.9 °F 3.6 °F 1015.8 in WSW 9.3 mph 9.3 mph 53 % 0.0 in
20:45 8.7 °F -0.6 °F 1018.8 in WNW 4.8 mph 9.7 mph 52 % 0.0 in
20:47 12.9 °F 3.6 °F 1015.8 in WSW 5.8 mph 5.8 mph 53 % 0.0 in
20:52 12.9 °F 3.6 °F 1015.8 in WSW 5.6 mph 5.6 mph 53 % 0.0 in
20:53 12.9 °F 3.6 °F 1015.8 in WSW 5.6 mph 5.6 mph 53 % 0.0 in
20:54 12.9 °F 3.6 °F 1015.8 in WSW 5.6 mph 5.6 mph 53 % 0.0 in
20:55 8.6 °F -0.7 °F 1019.9 in West 4.8 mph 8.0 mph 52 % 0.0 in
20:59 12.9 °F 3.6 °F 1015.8 in WSW 5.6 mph 5.6 mph 53 % 0.0 in
21:03 12.9 °F 3.6 °F 1015.8 in WSW 5.6 mph 5.6 mph 53 % 0.0 in
21:04 13.0 °F 3.6 °F 1015.8 in NW 5.6 mph 5.6 mph 53 % 0.0 in
21:05 8.5 °F -0.8 °F 1019.9 in West 11.3 mph 11.3 mph 52 % 0.0 in
21:09 12.9 °F 3.6 °F 1015.8 in West 9.3 mph 9.3 mph 53 % 0.0 in
21:14 13.0 °F 3.6 °F 1015.8 in WSW 9.3 mph 9.3 mph 53 % 0.0 in
21:15 13.0 °F 3.6 °F 1015.8 in WNW 7.4 mph 7.4 mph 53 % 0.0 in
21:16 12.9 °F 3.6 °F 1015.8 in WNW 7.6 mph 7.6 mph 53 % 0.0 in
21:21 13.0 °F 3.6 °F 1015.8 in WSW 8.7 mph 8.7 mph 53 % 0.0 in
21:22 13.0 °F 3.6 °F 1015.8 in West 9.3 mph 9.3 mph 53 % 0.0 in
21:25 8.5 °F -0.8 °F 1019.9 in West 8.0 mph 12.9 mph 52 % 0.0 in
21:27 13.1 °F 3.7 °F 1015.8 in West 9.3 mph 9.3 mph 53 % 0.0 in
21:32 13.1 °F 3.4 °F 1015.8 in WSW 11.1 mph 11.1 mph 52 % 0.0 in
21:35 13.2 °F 3.6 °F 1015.8 in West 9.3 mph 9.3 mph 52 % 0.0 in
21:37 13.3 °F 3.7 °F 1015.8 in WNW 14.8 mph 14.8 mph 52 % 0.0 in
21:42 13.4 °F 3.7 °F 1015.8 in West 9.3 mph 9.3 mph 52 % 0.0 in
21:43 13.4 °F 3.7 °F 1015.8 in West 9.3 mph 9.3 mph 52 % 0.0 in
21:45 8.3 °F -1.0 °F 1019.9 in WSW 11.3 mph 12.9 mph 52 % 0.0 in
21:46 13.3 °F 3.7 °F 1015.8 in SW 11.1 mph 11.1 mph 52 % 0.0 in
21:51 13.4 °F 3.7 °F 1015.8 in WNW 13.0 mph 13.0 mph 52 % 0.0 in
21:52 13.4 °F 3.7 °F 1015.8 in West 13.0 mph 13.0 mph 52 % 0.0 in
21:55 8.2 °F -1.1 °F 1020.9 in WSW 9.7 mph 17.7 mph 52 % 0.0 in
21:57 13.4 °F 3.7 °F 1015.8 in West 9.3 mph 9.3 mph 52 % 0.0 in
21:59 13.3 °F 3.7 °F 1015.8 in WSW 7.4 mph 7.4 mph 52 % 0.0 in
22:02 13.3 °F 3.7 °F 1015.8 in NNW 10.0 mph 10.0 mph 52 % 0.0 in
22:05 13.3 °F 3.7 °F 1015.8 in West 18.5 mph 18.5 mph 52 % 0.0 in
22:10 13.3 °F 3.7 °F 1015.8 in West 9.3 mph 9.3 mph 52 % 0.0 in
22:12 13.3 °F 3.7 °F 1015.8 in WSW 14.8 mph 14.8 mph 52 % 0.0 in
22:15 8.1 °F -1.2 °F 1020.9 in West 12.9 mph 14.5 mph 52 % 0.0 in
22:17 13.3 °F 3.7 °F 1015.8 in WNW 20.4 mph 20.4 mph 52 % 0.0 in
22:20 13.2 °F 3.6 °F 1015.8 in WSW 9.3 mph 9.3 mph 52 % 0.0 in
22:21 13.2 °F 3.6 °F 1015.8 in WNW 20.4 mph 20.4 mph 52 % 0.0 in
22:25 8.0 °F -1.3 °F 1020.9 in West 12.9 mph 14.5 mph 52 % 0.0 in
22:26 13.2 °F 3.6 °F 1016.8 in SW 11.1 mph 11.1 mph 52 % 0.0 in
22:28 13.1 °F 3.4 °F 1016.8 in WNW 6.9 mph 6.9 mph 52 % 0.0 in
22:32 13.1 °F 3.4 °F 1016.8 in WSW 9.5 mph 9.5 mph 52 % 0.0 in
22:33 13.1 °F 3.4 °F 1016.8 in SW 9.5 mph 9.5 mph 52 % 0.0 in
22:35 8.0 °F -1.3 °F 1021.9 in West 11.3 mph 16.1 mph 52 % 0.0 in
22:38 13.0 °F 3.4 °F 1016.8 in WSW 11.9 mph 11.9 mph 52 % 0.0 in
22:39 13.0 °F 3.4 °F 1016.8 in WNW 14.8 mph 14.8 mph 52 % 0.0 in
22:41 13.0 °F 3.4 °F 1016.8 in WNW 5.6 mph 5.6 mph 52 % 0.0 in
22:45 8.0 °F -1.3 °F 1021.9 in West 11.3 mph 12.9 mph 52 % 0.0 in
22:46 12.9 °F 3.3 °F 1016.8 in West 9.5 mph 9.5 mph 52 % 0.0 in
22:47 12.9 °F 3.3 °F 1016.8 in WSW 10.8 mph 10.8 mph 52 % 0.0 in
22:52 12.9 °F 3.6 °F 1016.8 in WNW 9.3 mph 9.3 mph 53 % 0.0 in
22:53 12.9 °F 3.6 °F 1016.8 in West 13.0 mph 13.0 mph 53 % 0.0 in
22:55 12.9 °F 3.6 °F 1016.8 in West 8.0 mph 12.9 mph 53 % 0.0 in
22:59 12.9 °F 3.6 °F 1016.8 in WSW 7.9 mph 7.9 mph 53 % 0.0 in
23:04 12.8 °F 3.4 °F 1016.8 in WSW 7.9 mph 7.9 mph 53 % 0.0 in
23:05 12.8 °F 3.4 °F 1016.8 in SW 9.3 mph 9.3 mph 53 % 0.0 in
23:10 12.8 °F 3.4 °F 1016.8 in SSE 3.7 mph 3.7 mph 53 % 0.0 in
23:15 12.6 °F 3.3 °F 1016.8 in ESE 5.6 mph 5.6 mph 53 % 0.0 in
23:16 12.7 °F 3.3 °F 1016.8 in South 5.6 mph 5.6 mph 53 % 0.0 in
23:21 12.6 °F 3.3 °F 1016.8 in WSW 3.7 mph 3.7 mph 53 % 0.0 in
23:22 12.6 °F 3.3 °F 1016.8 in SSE 3.7 mph 3.7 mph 53 % 0.0 in
23:25 8.0 °F -1.3 °F 1021.9 in West 9.7 mph 9.7 mph 52 % 0.0 in
23:27 12.6 °F 3.3 °F 1017.8 in West 9.3 mph 9.3 mph 53 % 0.0 in
23:29 12.6 °F 3.3 °F 1017.8 in WNW 4.2 mph 4.2 mph 53 % 0.0 in
23:33 12.6 °F 3.6 °F 1017.8 in West 9.3 mph 9.3 mph 54 % 0.0 in
23:35 7.9 °F -1.4 °F 1022.9 in West 8.0 mph 9.7 mph 52 % 0.0 in
23:38 12.6 °F 3.6 °F 1017.8 in WSW 12.2 mph 12.2 mph 54 % 0.0 in
23:40 12.6 °F 3.6 °F 1017.8 in WSW 9.3 mph 9.3 mph 54 % 0.0 in
23:45 12.6 °F 3.6 °F 1017.8 in NW 7.4 mph 7.4 mph 54 % 0.0 in
23:46 12.6 °F 3.6 °F 1017.8 in NW 7.4 mph 7.4 mph 54 % 0.0 in
23:51 12.6 °F 3.6 °F 1017.8 in WNW 4.2 mph 4.2 mph 54 % 0.0 in
23:53 12.5 °F 3.7 °F 1017.8 in West 3.7 mph 3.7 mph 55 % 0.0 in
23:55 8.0 °F -1.3 °F 1022.9 in West 9.7 mph 14.5 mph 52 % 0.0 in
23:57 12.4 °F 3.6 °F 1017.8 in South 1.4 mph   55 % 0.0 in
23:58 12.4 °F 3.6 °F 1017.8 in South 1.9 mph   55 % 0.0 in
Meteo Sesrovires
Elogis d' Weather Underground - 1.75 mb

Guio original per  Jim McMurry - jmcmurry@mwt.net Adaptat per a la plantilla per  Wim van der Kuil - Leuven-Template.eu

Trobareu la nostra informacio del temps tambe a:

Weather Underground

AWEKAS